Time;durP1;ratioP1;P1;durP2;ratioP2;P2;SDS_P1;SDS_P2;PMS_P1;PMS_P2;Temp;Humidity;BMP_temperature;BMP_pressure;BME280_temperature;BME280_humidity;BME280_pressure;Samples;Min_cycle;Max_cycle;Signal;HPM_P1;HPM_P2
2022/12/20 00:01:59;;;;;;;2.53;0.30;;;9.30;99.90;;;;;;5095981;28;20124;-79
2022/12/20 00:04:24;;;;;;;0.10;0.00;;;9.30;99.90;;;;;;5062567;28;20093;-79
2022/12/20 00:06:50;;;;;;;2.42;1.65;;;9.30;99.90;;;;;;5112670;28;20052;-79
2022/12/20 00:09:16;;;;;;;0.20;0.00;;;9.30;99.90;;;;;;5078971;28;20046;-79
2022/12/20 00:11:41;;;;;;;0.00;0.00;;;9.30;99.90;;;;;;5112968;28;20044;-79
2022/12/20 00:14:08;;;;;;;0.35;0.05;;;9.30;99.90;;;;;;5095620;28;20051;-79
2022/12/20 00:16:35;;;;;;;0.17;0.10;;;9.30;99.90;;;;;;5112465;28;20048;-78
2022/12/20 00:19:03;;;;;;;0.00;0.00;;;9.30;99.90;;;;;;5095586;28;20044;-79
2022/12/20 00:21:30;;;;;;;0.10;0.10;;;9.30;99.90;;;;;;5096087;28;20131;-79
2022/12/20 00:23:56;;;;;;;0.00;0.00;;;9.30;99.90;;;;;;5095717;28;20047;-79
2022/12/20 00:26:25;;;;;;;3.97;0.68;;;9.20;99.90;;;;;;5095256;28;20082;-79
2022/12/20 00:28:51;;;;;;;0.17;0.17;;;9.30;99.90;;;;;;5090181;28;20415;-79
2022/12/20 00:31:18;;;;;;;0.10;0.00;;;9.30;99.90;;;;;;5058877;28;20040;-79
2022/12/20 00:33:46;;;;;;;0.00;0.00;;;9.30;99.90;;;;;;5095051;28;20060;-79
2022/12/20 00:36:12;;;;;;;0.00;0.00;;;9.30;99.90;;;;;;5095873;28;20488;-79
2022/12/20 00:38:37;;;;;;;0.20;0.13;;;9.30;99.90;;;;;;5095956;28;20162;-79
2022/12/20 00:41:06;;;;;;;0.00;0.00;;;9.30;99.90;;;;;;5096072;28;20047;-79
2022/12/20 00:43:33;;;;;;;0.00;0.00;;;9.30;99.90;;;;;;5095976;28;20060;-79
2022/12/20 00:45:59;;;;;;;0.00;0.00;;;9.30;99.90;;;;;;5095680;28;20044;-79
2022/12/20 00:48:25;;;;;;;0.00;0.00;;;9.20;99.90;;;;;;5079347;28;20052;-79
2022/12/20 00:50:51;;;;;;;0.20;0.00;;;9.30;99.90;;;;;;5078723;28;20484;-79
2022/12/20 00:53:17;;;;;;;0.00;0.00;;;9.20;99.90;;;;;;5095767;28;20048;-79
2022/12/20 00:55:44;;;;;;;0.43;0.10;;;9.30;99.90;;;;;;5095545;28;20044;-79
2022/12/20 00:58:11;;;;;;;0.00;0.00;;;9.30;99.90;;;;;;5095248;28;20055;-79
2022/12/20 01:00:38;;;;;;;0.00;0.00;;;9.40;99.90;;;;;;5095924;28;20048;-79
2022/12/20 01:03:04;;;;;;;0.00;0.00;;;9.30;99.90;;;;;;5095660;28;20047;-79
2022/12/20 01:05:29;;;;;;;0.20;0.20;;;9.30;99.90;;;;;;5062135;28;20044;-79
2022/12/20 01:07:55;;;;;;;1.85;0.15;;;9.30;99.90;;;;;;5078465;28;20094;-79
2022/12/20 01:10:21;;;;;;;0.00;0.00;;;9.30;99.90;;;;;;5095470;28;20135;-79
2022/12/20 01:12:46;;;;;;;0.00;0.00;;;9.40;99.90;;;;;;5061763;28;20047;-79
2022/12/20 01:15:12;;;;;;;1.05;0.10;;;9.40;99.90;;;;;;5094856;28;20135;-79
2022/12/20 01:17:38;;;;;;;0.00;0.00;;;9.40;99.90;;;;;;5079021;28;20052;-79
2022/12/20 01:20:05;;;;;;;0.10;0.10;;;9.40;99.90;;;;;;5078533;28;20048;-79
2022/12/20 01:22:30;;;;;;;0.00;0.00;;;9.40;99.90;;;;;;5078337;28;20055;-79
2022/12/20 01:24:56;;;;;;;0.00;0.00;;;9.40;99.90;;;;;;5095007;28;20448;-79
2022/12/20 01:27:22;;;;;;;0.00;0.00;;;9.40;99.90;;;;;;5044177;28;20048;-79
2022/12/20 01:29:48;;;;;;;0.00;0.00;;;9.40;99.90;;;;;;5095146;28;20412;-79
2022/12/20 01:32:13;;;;;;;0.03;0.00;;;9.40;99.90;;;;;;5061455;28;20055;-79
2022/12/20 01:34:39;;;;;;;0.00;0.00;;;9.40;99.90;;;;;;5061020;28;20048;-79
2022/12/20 01:37:05;;;;;;;0.05;0.00;;;9.40;99.90;;;;;;5078141;28;20519;-79
2022/12/20 01:39:31;;;;;;;0.00;0.00;;;9.40;99.90;;;;;;5094754;28;20423;-79
2022/12/20 01:41:56;;;;;;;0.08;0.08;;;9.40;99.90;;;;;;5077767;28;20036;-79
2022/12/20 01:44:22;;;;;;;0.00;0.00;;;9.40;99.90;;;;;;5094190;28;20052;-79
2022/12/20 01:46:49;;;;;;;0.28;0.22;;;9.30;99.90;;;;;;5077933;28;20419;-79
2022/12/20 01:49:23;;;;;;;0.00;0.00;;;9.40;99.90;;;;;;5077801;28;20052;-79
2022/12/20 01:52:14;;;;;;;0.13;0.10;;;9.40;99.90;;;;;;5094994;28;20431;-79
2022/12/20 01:54:43;;;;;;;0.13;0.05;;;9.40;99.90;;;;;;5077521;28;20052;-80
2022/12/20 01:57:14;;;;;;;0.47;0.35;;;9.40;99.90;;;;;;5094309;28;20040;-79
2022/12/20 01:59:43;;;;;;;0.00;0.00;;;9.40;99.90;;;;;;5094650;28;20105;-79
2022/12/20 02:02:10;;;;;;;0.32;0.00;;;9.40;99.90;;;;;;5094604;28;20056;-79
2022/12/20 02:04:36;;;;;;;0.00;0.00;;;9.50;99.90;;;;;;5095416;28;20040;-79
2022/12/20 02:07:03;;;;;;;0.00;0.00;;;9.50;99.90;;;;;;5094340;28;20051;-79
2022/12/20 02:09:32;;;;;;;0.00;0.00;;;9.50;99.90;;;;;;5061076;28;20090;-79
2022/12/20 02:12:13;;;;;;;0.00;0.00;;;9.50;99.90;;;;;;5094045;28;20502;-79
2022/12/20 02:15:22;;;;;;;0.32;0.00;;;9.50;99.90;;;;;;5077320;28;20396;-79
2022/12/20 02:17:48;;;;;;;0.00;0.00;;;9.50;99.90;;;;;;5094244;28;20138;-79
2022/12/20 02:20:41;;;;;;;0.00;0.00;;;9.50;99.90;;;;;;5077305;28;20135;-79
2022/12/20 02:23:34;;;;;;;0.05;0.05;;;9.60;99.90;;;;;;5077250;28;20462;-79
2022/12/20 02:26:26;;;;;;;0.10;0.08;;;9.60;99.90;;;;;;5076350;28;20450;-79
2022/12/20 02:29:22;;;;;;;0.20;0.03;;;9.60;99.90;;;;;;5094014;28;20055;-79
2022/12/20 02:32:03;;;;;;;0.68;0.30;;;9.60;99.90;;;;;;5093803;28;20404;-79
2022/12/20 02:34:32;;;;;;;0.00;0.00;;;9.60;99.90;;;;;;5076339;28;20139;-79
2022/12/20 02:36:57;;;;;;;0.00;0.00;;;9.60;99.90;;;;;;5076880;28;20052;-79
2022/12/20 02:39:25;;;;;;;0.00;0.00;;;9.70;99.90;;;;;;5093661;28;20048;-79
2022/12/20 02:41:56;;;;;;;0.00;0.00;;;9.70;99.90;;;;;;5093516;28;20159;-79
2022/12/20 02:47:17;;;;;;;0.00;0.00;;;9.70;99.90;;;;;;5094178;28;20083;-79
2022/12/20 02:49:45;;;;;;;0.15;0.15;;;9.70;99.90;;;;;;5093394;28;20122;-79
2022/12/20 02:52:12;;;;;;;0.43;0.03;;;9.70;99.90;;;;;;5093447;28;20463;-79
2022/12/20 02:54:38;;;;;;;1.77;0.55;;;9.70;99.90;;;;;;5092416;28;20139;-79
2022/12/20 02:57:37;;;;;;;0.10;0.08;;;9.70;99.90;;;;;;5092881;28;20134;-79
2022/12/20 03:00:17;;;;;;;0.00;0.00;;;9.70;99.90;;;;;;5093631;28;20090;-79
2022/12/20 03:05:29;;;;;;;0.00;0.00;;;9.60;99.90;;;;;;5079021;28;20130;-80
2022/12/20 03:07:55;;;;;;;0.00;0.00;;;9.70;99.90;;;;;;5076352;28;20056;-79
2022/12/20 03:10:21;;;;;;;0.17;0.00;;;9.60;99.90;;;;;;5093272;28;20040;-79
2022/12/20 03:12:47;;;;;;;0.85;0.00;;;9.60;99.90;;;;;;5076329;28;20044;-79
2022/12/20 03:15:13;;;;;;;0.17;0.00;;;9.60;99.90;;;;;;5092885;28;20537;-80
2022/12/20 03:17:39;;;;;;;0.00;0.00;;;9.60;99.90;;;;;;5092966;28;20121;-80
2022/12/20 03:20:06;;;;;;;0.03;0.03;;;9.60;99.90;;;;;;5076015;28;20495;-80
2022/12/20 03:22:33;;;;;;;0.00;0.00;;;9.60;99.90;;;;;;5076400;28;20085;-80
2022/12/20 03:24:59;;;;;;;0.00;0.00;;;9.60;99.90;;;;;;5076329;28;20510;-79
2022/12/20 03:27:27;;;;;;;0.10;0.10;;;9.70;99.90;;;;;;5092601;28;20486;-79
2022/12/20 03:29:53;;;;;;;0.50;0.10;;;9.60;99.90;;;;;;5076439;28;20048;-80
2022/12/20 03:32:19;;;;;;;0.00;0.00;;;9.60;99.90;;;;;;5075880;28;20437;-80
2022/12/20 03:34:45;;;;;;;0.00;0.00;;;9.60;99.90;;;;;;5092500;28;20056;-79
2022/12/20 03:37:10;;;;;;;3.03;1.65;;;9.60;99.90;;;;;;5092846;28;20362;-80
2022/12/20 03:39:36;;;;;;;0.00;0.00;;;9.60;99.90;;;;;;5076008;28;20055;-79
2022/12/20 03:42:02;;;;;;;0.32;0.28;;;9.60;99.90;;;;;;5059253;28;20433;-79
2022/12/20 03:44:27;;;;;;;0.63;0.20;;;9.60;99.90;;;;;;5075966;28;20429;-79
2022/12/20 03:46:53;;;;;;;0.22;0.22;;;9.60;99.90;;;;;;5059312;28;20067;-79
2022/12/20 03:49:18;;;;;;;0.03;0.00;;;9.60;99.90;;;;;;5092481;28;20047;-79
2022/12/20 03:51:44;;;;;;;0.00;0.00;;;9.60;99.90;;;;;;5059731;28;20059;-79
2022/12/20 03:54:10;;;;;;;0.00;0.00;;;9.50;99.90;;;;;;5059038;28;20488;-79
2022/12/20 03:56:35;;;;;;;0.00;0.00;;;9.60;99.90;;;;;;5075321;28;20536;-80
2022/12/20 03:59:01;;;;;;;1.65;0.10;;;9.60;99.90;;;;;;5042511;28;20480;-80
2022/12/20 04:01:28;;;;;;;0.05;0.00;;;9.50;99.90;;;;;;5092731;28;20036;-80
2022/12/20 04:03:54;;;;;;;0.28;0.10;;;9.60;99.90;;;;;;5092183;28;20496;-80
2022/12/20 04:06:21;;;;;;;0.10;0.10;;;9.60;99.90;;;;;;5093836;28;20404;-80
2022/12/20 04:08:46;;;;;;;0.00;0.00;;;9.60;99.90;;;;;;5079518;28;20109;-80
2022/12/20 04:11:15;;;;;;;0.00;0.00;;;9.60;99.90;;;;;;5079724;28;20048;-80
2022/12/20 04:13:47;;;;;;;0.00;0.00;;;9.60;99.90;;;;;;5079768;28;20131;-80
2022/12/20 04:16:15;;;;;;;0.00;0.00;;;9.60;99.90;;;;;;5079328;28;20504;-79
2022/12/20 04:18:41;;;;;;;0.00;0.00;;;9.60;99.90;;;;;;5096557;28;20052;-80
2022/12/20 04:21:08;;;;;;;0.00;0.00;;;9.60;99.90;;;;;;5079522;28;20369;-80
2022/12/20 04:23:35;;;;;;;0.30;0.28;;;9.60;99.90;;;;;;5079586;28;20082;-80
2022/12/20 04:26:03;;;;;;;0.00;0.00;;;9.60;99.90;;;;;;5079417;28;20052;-80
2022/12/20 04:28:29;;;;;;;0.00;0.00;;;9.60;99.90;;;;;;5079056;28;20122;-80
2022/12/20 04:30:55;;;;;;;0.00;0.00;;;9.60;99.90;;;;;;5079060;28;20079;-80
2022/12/20 04:33:22;;;;;;;0.00;0.00;;;9.60;99.90;;;;;;5095771;28;20106;-80
2022/12/20 04:35:48;;;;;;;0.10;0.05;;;9.60;99.90;;;;;;5063143;28;20048;-80
2022/12/20 04:38:13;;;;;;;0.00;0.00;;;9.60;99.90;;;;;;5095908;28;20472;-80
2022/12/20 04:40:39;;;;;;;0.38;0.38;;;9.60;99.90;;;;;;5079128;28;20085;-79
2022/12/20 04:43:05;;;;;;;0.00;0.00;;;9.60;99.90;;;;;;5062575;28;20055;-80
2022/12/20 04:45:31;;;;;;;0.77;0.25;;;9.70;99.90;;;;;;5095931;28;20054;-80
2022/12/20 04:47:56;;;;;;;0.00;0.00;;;9.70;99.90;;;;;;5079276;28;20044;-80
2022/12/20 04:50:22;;;;;;;0.00;0.00;;;9.70;99.90;;;;;;5079042;28;20044;-79
2022/12/20 04:55:39;;;;;;;0.00;0.00;;;9.70;99.90;;;;;;5067279;28;20055;-80
2022/12/20 04:58:06;;;;;;;0.00;0.00;;;9.70;99.90;;;;;;5095126;28;20044;-79
2022/12/20 05:00:32;;;;;;;0.00;0.00;;;9.70;99.90;;;;;;5095438;28;20384;-79
2022/12/20 05:02:58;;;;;;;0.75;0.43;;;9.80;99.90;;;;;;5095687;28;20048;-79
2022/12/20 05:05:24;;;;;;;0.00;0.00;;;9.80;99.90;;;;;;5062095;28;20046;-79
2022/12/20 05:07:51;;;;;;;0.00;0.00;;;9.80;99.90;;;;;;5061677;28;20055;-79
2022/12/20 05:10:17;;;;;;;0.00;0.00;;;9.80;99.90;;;;;;5095562;28;20032;-80
2022/12/20 05:12:43;;;;;;;0.00;0.00;;;9.90;99.90;;;;;;5095107;28;20507;-79
2022/12/20 05:15:09;;;;;;;0.00;0.00;;;10.00;99.90;;;;;;5095254;28;20036;-79
2022/12/20 05:17:35;;;;;;;0.20;0.00;;;10.00;99.90;;;;;;5094621;28;20052;-80
2022/12/20 05:20:01;;;;;;;0.22;0.00;;;10.00;99.90;;;;;;5095072;28;20048;-80
2022/12/20 05:27:55;;;;;;;0.00;0.00;;;10.20;99.90;;;;;;5094904;28;20051;-79
2022/12/20 05:30:21;;;;;;;0.95;0.10;;;10.20;99.90;;;;;;5078293;28;20044;-79
2022/12/20 05:32:47;;;;;;;0.10;0.10;;;10.20;99.90;;;;;;5077681;28;20515;-79
2022/12/20 05:35:13;;;;;;;0.10;0.10;;;10.30;99.90;;;;;;5077839;28;20094;-79
2022/12/20 05:37:39;;;;;;;0.10;0.10;;;10.30;99.90;;;;;;5078103;28;20086;-79
2022/12/20 05:40:05;;;;;;;0.00;0.00;;;10.30;99.90;;;;;;5077985;28;20067;-79
2022/12/20 05:42:31;;;;;;;0.00;0.00;;;10.30;99.90;;;;;;5078369;28;20055;-79
2022/12/20 05:44:57;;;;;;;0.00;0.00;;;10.30;99.90;;;;;;5078073;28;20048;-79
2022/12/20 05:47:22;;;;;;;0.05;0.05;;;10.40;99.90;;;;;;5043671;28;20369;-80
2022/12/20 05:49:48;;;;;;;0.00;0.00;;;10.40;99.90;;;;;;5094394;28;20051;-79
2022/12/20 05:52:14;;;;;;;0.00;0.00;;;10.40;99.90;;;;;;5094531;28;20533;-79
2022/12/20 05:54:39;;;;;;;1.55;0.57;;;10.40;99.90;;;;;;5094466;28;20476;-79
2022/12/20 05:57:05;;;;;;;0.65;0.38;;;10.40;99.90;;;;;;5077073;28;20048;-79
2022/12/20 05:59:31;;;;;;;0.00;0.00;;;10.40;99.90;;;;;;5077664;28;20089;-79
2022/12/20 06:01:56;;;;;;;0.00;0.00;;;10.40;99.90;;;;;;5060861;28;20044;-79
2022/12/20 06:04:22;;;;;;;0.00;0.00;;;10.40;99.90;;;;;;5077590;28;20063;-80
2022/12/20 06:06:48;;;;;;;25.13;1.20;;;10.40;99.90;;;;;;5077279;28;20040;-79
2022/12/20 06:09:13;;;;;;;0.30;0.05;;;10.40;99.90;;;;;;5094148;28;20048;-79
2022/12/20 06:11:39;;;;;;;0.00;0.00;;;10.30;99.90;;;;;;5094297;28;20113;-80
2022/12/20 06:14:05;;;;;;;0.20;0.03;;;10.30;99.90;;;;;;5077303;28;20090;-79
2022/12/20 06:16:30;;;;;;;0.00;0.00;;;10.30;99.90;;;;;;5060757;28;20160;-80
2022/12/20 06:18:56;;;;;;;0.00;0.00;;;10.30;99.90;;;;;;5077428;28;20044;-79
2022/12/20 06:21:22;;;;;;;0.10;0.10;;;10.30;99.90;;;;;;5077271;28;20044;-79
2022/12/20 06:23:48;;;;;;;0.03;0.00;;;10.30;99.90;;;;;;5093800;28;20043;-79
2022/12/20 06:26:14;;;;;;;1.20;0.40;;;10.40;99.90;;;;;;5076402;28;20043;-79
2022/12/20 06:28:41;;;;;;;0.00;0.00;;;10.40;99.90;;;;;;5093950;28;20051;-79
2022/12/20 06:31:09;;;;;;;0.00;0.00;;;10.40;99.90;;;;;;5077310;28;20048;-79
2022/12/20 06:33:35;;;;;;;0.00;0.00;;;10.40;99.90;;;;;;5076864;28;20048;-78
2022/12/20 06:36:01;;;;;;;0.03;0.00;;;10.40;99.90;;;;;;5076841;28;20138;-80
2022/12/20 06:38:27;;;;;;;0.00;0.00;;;10.40;99.90;;;;;;5077300;28;20135;-79
2022/12/20 06:40:53;;;;;;;0.00;0.00;;;10.40;99.90;;;;;;5093952;28;20151;-79
2022/12/20 06:43:19;;;;;;;0.75;0.38;;;10.30;99.90;;;;;;5077243;28;20047;-80
2022/12/20 06:45:44;;;;;;;0.00;0.00;;;10.30;99.90;;;;;;5093449;28;20444;-80
2022/12/20 06:48:10;;;;;;;0.22;0.00;;;10.30;99.90;;;;;;5076933;28;20056;-80
2022/12/20 06:50:38;;;;;;;0.40;0.40;;;10.20;99.90;;;;;;5076731;28;20058;-81
2022/12/20 06:53:04;;;;;;;0.00;0.00;;;10.20;99.90;;;;;;5093843;28;20135;-80
2022/12/20 06:55:29;;;;;;;0.03;0.03;;;10.20;99.90;;;;;;5076053;28;20127;-80
2022/12/20 06:57:55;;;;;;;0.00;0.00;;;10.10;99.90;;;;;;5059537;28;20040;-80
2022/12/20 07:00:21;;;;;;;1.17;0.30;;;10.20;99.90;;;;;;5092988;28;20044;-81
2022/12/20 07:02:47;;;;;;;0.40;0.28;;;10.10;99.90;;;;;;5059856;28;20086;-80
2022/12/20 07:05:13;;;;;;;0.03;0.00;;;10.10;99.90;;;;;;5093277;28;20048;-80
2022/12/20 07:07:40;;;;;;;0.43;0.43;;;10.10;99.90;;;;;;5075876;28;20059;-80
2022/12/20 07:10:06;;;;;;;0.00;0.00;;;10.10;99.90;;;;;;5059892;28;20048;-80
2022/12/20 07:12:32;;;;;;;0.00;0.00;;;10.10;99.90;;;;;;5076420;28;20047;-80
2022/12/20 07:14:58;;;;;;;0.77;0.17;;;10.10;99.90;;;;;;5076004;28;20048;-81
2022/12/20 07:17:24;;;;;;;0.00;0.00;;;10.10;99.90;;;;;;5059606;28;20044;-80
2022/12/20 07:19:50;;;;;;;0.00;0.00;;;10.10;99.90;;;;;;5076027;28;20086;-80
2022/12/20 07:22:16;;;;;;;0.10;0.10;;;10.10;99.90;;;;;;5043321;28;20036;-81
2022/12/20 07:24:41;;;;;;;0.00;0.00;;;10.10;99.90;;;;;;5059679;28;20476;-81
2022/12/20 07:27:09;;;;;;;0.38;0.38;;;10.10;99.90;;;;;;5059842;28;20040;-80
2022/12/20 07:29:35;;;;;;;0.13;0.13;;;10.10;99.90;;;;;;5093099;28;20044;-81
2022/12/20 07:32:01;;;;;;;0.00;0.00;;;10.10;99.90;;;;;;5059337;28;20139;-81
2022/12/20 07:34:27;;;;;;;0.20;0.20;;;10.10;99.90;;;;;;5075425;28;20059;-81
2022/12/20 07:36:52;;;;;;;0.10;0.10;;;10.10;99.90;;;;;;5092896;28;20044;-81
2022/12/20 07:39:18;;;;;;;1.13;0.38;;;10.10;99.90;;;;;;5092842;28;20127;-81
2022/12/20 07:41:44;;;;;;;0.00;0.00;;;10.10;99.90;;;;;;5092293;28;20051;-82
2022/12/20 07:44:10;;;;;;;0.00;0.00;;;10.10;99.90;;;;;;5076036;28;20069;-83
2022/12/20 07:46:36;;;;;;;0.00;0.00;;;10.10;99.90;;;;;;5059320;28;20048;-82
2022/12/20 07:49:01;;;;;;;0.10;0.00;;;10.10;99.90;;;;;;5075725;28;20177;-81
2022/12/20 07:51:33;;;;;;;0.00;0.00;;;10.20;99.90;;;;;;5075641;28;20418;-78
2022/12/20 07:54:05;;;;;;;1.20;0.35;;;10.20;99.90;;;;;;5092622;28;20531;-78
2022/12/20 07:56:32;;;;;;;0.20;0.10;;;10.20;99.90;;;;;;5092568;28;20071;-78
2022/12/20 07:59:00;;;;;;;0.00;0.00;;;10.30;99.90;;;;;;5092725;28;20056;-79
2022/12/20 08:01:29;;;;;;;0.00;0.00;;;10.30;99.90;;;;;;5092398;28;20051;-79
2022/12/20 08:04:04;;;;;;;0.00;0.00;;;10.30;99.90;;;;;;5092586;28;20063;-79
2022/12/20 08:06:31;;;;;;;0.00;0.00;;;10.30;99.90;;;;;;5092636;28;20484;-79
2022/12/20 08:08:59;;;;;;;0.00;0.00;;;10.40;99.90;;;;;;5092833;28;20080;-78
2022/12/20 08:11:28;;;;;;;0.00;0.00;;;10.40;99.90;;;;;;5075696;28;20480;-79
2022/12/20 08:13:54;;;;;;;0.05;0.05;;;10.40;99.90;;;;;;5092232;28;20041;-79
2022/12/20 08:16:19;;;;;;;0.00;0.00;;;10.40;99.90;;;;;;5075406;28;20399;-79
2022/12/20 08:18:45;;;;;;;2.40;0.52;;;10.40;99.90;;;;;;5043089;28;20058;-79
2022/12/20 08:21:13;;;;;;;0.22;0.13;;;10.50;99.90;;;;;;5058976;28;20047;-79
2022/12/20 08:23:39;;;;;;;0.00;0.00;;;10.50;99.90;;;;;;5092504;28;20052;-79
2022/12/20 08:26:05;;;;;;;0.88;0.30;;;10.50;99.90;;;;;;5075459;28;20059;-80
2022/12/20 08:28:30;;;;;;;0.00;0.00;;;10.50;99.90;;;;;;5091805;28;20040;-78
2022/12/20 08:31:04;;;;;;;0.00;0.00;;;10.50;99.90;;;;;;5092170;28;20039;-78
2022/12/20 08:33:32;;;;;;;0.28;0.10;;;10.50;99.90;;;;;;5092226;28;20080;-79
2022/12/20 08:36:03;;;;;;;0.00;0.00;;;10.40;99.90;;;;;;5058725;28;20087;-79
2022/12/20 08:38:30;;;;;;;0.10;0.00;;;10.50;99.90;;;;;;5092275;28;20040;-79
2022/12/20 08:41:07;;;;;;;0.00;0.00;;;10.50;99.90;;;;;;5075557;28;20406;-79
2022/12/20 08:43:33;;;;;;;0.00;0.00;;;10.50;99.90;;;;;;5075810;28;20048;-78
2022/12/20 08:45:59;;;;;;;0.00;0.00;;;10.50;99.90;;;;;;5058810;28;20109;-79
2022/12/20 08:48:25;;;;;;;0.00;0.00;;;10.50;99.90;;;;;;5092492;28;20052;-78
2022/12/20 08:51:10;;;;;;;0.00;0.00;;;10.50;99.90;;;;;;5092144;28;20040;-78
2022/12/20 08:53:37;;;;;;;0.00;0.00;;;10.60;99.90;;;;;;5093364;28;20504;-78
2022/12/20 08:56:14;;;;;;;0.00;0.00;;;10.50;99.90;;;;;;5078635;28;20067;-78
2022/12/20 08:58:41;;;;;;;0.00;0.00;;;10.50;99.90;;;;;;5095601;28;20377;-78
2022/12/20 09:01:10;;;;;;;0.00;0.00;;;10.50;99.90;;;;;;5078786;28;20059;-78
2022/12/20 09:03:36;;;;;;;0.20;0.20;;;10.50;99.90;;;;;;5078666;28;20492;-78
2022/12/20 09:06:11;;;;;;;0.00;0.00;;;10.50;99.90;;;;;;5095523;28;20442;-78
2022/12/20 09:08:38;;;;;;;0.30;0.15;;;10.50;99.90;;;;;;5095654;28;20066;-78
2022/12/20 09:11:11;;;;;;;0.00;0.00;;;10.50;99.90;;;;;;5078802;28;20522;-80
2022/12/20 09:13:37;;;;;;;0.03;0.00;;;10.50;99.90;;;;;;5078751;28;20559;-79
2022/12/20 09:16:05;;;;;;;0.75;0.30;;;10.50;99.90;;;;;;5078202;28;20126;-80
2022/12/20 09:18:32;;;;;;;0.45;0.45;;;10.50;99.90;;;;;;5095286;28;20093;-80
2022/12/20 09:21:02;;;;;;;0.00;0.00;;;10.50;99.90;;;;;;5061566;28;20450;-80
2022/12/20 09:23:29;;;;;;;0.00;0.00;;;10.50;99.90;;;;;;5079001;28;20052;-81
2022/12/20 09:25:59;;;;;;;0.10;0.10;;;10.50;99.90;;;;;;5078784;28;20056;-79
2022/12/20 09:28:25;;;;;;;0.10;0.10;;;10.50;99.90;;;;;;5078132;28;20048;-80
2022/12/20 09:30:51;;;;;;;0.00;0.00;;;10.50;99.90;;;;;;5078207;28;20051;-81
2022/12/20 09:33:16;;;;;;;0.00;0.00;;;10.50;99.90;;;;;;5077918;28;20064;-80
2022/12/20 09:35:47;;;;;;;0.00;0.00;;;10.50;99.90;;;;;;5078024;28;20407;-81
2022/12/20 09:38:12;;;;;;;0.65;0.43;;;10.50;99.90;;;;;;5095071;28;20404;-80
2022/12/20 09:40:44;;;;;;;0.00;0.00;;;10.50;99.90;;;;;;5094945;28;20044;-80
2022/12/20 09:43:11;;;;;;;0.10;0.10;;;10.50;99.90;;;;;;5094895;28;20040;-80
2022/12/20 09:45:37;;;;;;;1.55;0.00;;;10.50;99.90;;;;;;5078228;28;20059;-81
2022/12/20 09:48:04;;;;;;;0.15;0.15;;;10.50;99.90;;;;;;5094521;28;20044;-80
2022/12/20 09:50:39;;;;;;;0.00;0.00;;;10.50;99.90;;;;;;5078209;28;20113;-81
2022/12/20 09:53:41;;;;;;;0.08;0.08;;;10.40;99.90;;;;;;5094749;28;20048;-81
2022/12/20 09:56:36;;;;;;;0.08;0.00;;;10.40;99.90;;;;;;5094855;28;20044;-81
2022/12/20 09:59:12;;;;;;;0.40;0.40;;;10.40;99.90;;;;;;5094563;28;20048;-80
2022/12/20 10:01:41;;;;;;;0.25;0.17;;;10.30;99.90;;;;;;5094097;28;20040;-79
2022/12/20 10:04:25;;;;;;;0.00;0.00;;;10.30;99.90;;;;;;5076856;28;20059;-80
2022/12/20 10:07:09;;;;;;;0.08;0.00;;;10.30;99.90;;;;;;5094212;28;20458;-79
2022/12/20 10:10:00;;;;;;;0.00;0.00;;;10.20;99.90;;;;;;5077700;28;20062;-78
2022/12/20 10:12:58;;;;;;;0.20;0.10;;;10.20;99.90;;;;;;5094169;28;20047;-78
2022/12/20 10:15:47;;;;;;;0.00;0.00;;;10.20;99.90;;;;;;5095826;28;20083;-79
2022/12/20 10:18:22;;;;;;;0.00;0.00;;;10.20;99.90;;;;;;5077326;28;20048;-79
2022/12/20 10:21:06;;;;;;;0.00;0.00;;;10.20;99.90;;;;;;5077587;28;20055;-80
2022/12/20 10:24:24;;;;;;;0.00;0.00;;;10.10;99.90;;;;;;5094053;28;20098;-80
2022/12/20 10:26:50;;;;;;;0.00;0.00;;;10.10;99.90;;;;;;4996387;28;20060;-79
2022/12/20 10:29:18;;;;;;;0.00;0.00;;;10.10;99.90;;;;;;4980064;28;20502;-79
2022/12/20 10:31:43;;;;;;;0.00;0.00;;;10.10;99.90;;;;;;5051285;28;20069;-79
2022/12/20 10:34:09;;;;;;;0.00;0.00;;;10.10;99.90;;;;;;5076778;28;20056;-79
2022/12/20 10:36:36;;;;;;;0.00;0.00;;;10.00;99.90;;;;;;5093840;28;20047;-79
2022/12/20 10:39:09;;;;;;;0.00;0.00;;;10.00;99.90;;;;;;5089068;28;20047;-78
2022/12/20 10:41:43;;;;;;;0.00;0.00;;;10.00;99.90;;;;;;5067147;28;20066;-80
2022/12/20 10:44:28;;;;;;;0.00;0.00;;;10.00;99.90;;;;;;5073184;28;20059;-80
2022/12/20 10:46:59;;;;;;;0.03;0.00;;;10.00;99.90;;;;;;5073450;28;20056;-79
2022/12/20 10:49:35;;;;;;;0.10;0.10;;;10.10;99.90;;;;;;5073167;28;20059;-79
2022/12/20 10:52:01;;;;;;;0.10;0.10;;;10.10;99.90;;;;;;5073194;28;20484;-79
2022/12/20 10:54:42;;;;;;;0.30;0.10;;;10.00;99.90;;;;;;5072913;28;20082;-78
2022/12/20 10:57:24;;;;;;;0.00;0.00;;;10.10;99.90;;;;;;5072624;28;20617;-79
2022/12/20 10:59:53;;;;;;;0.32;0.28;;;10.10;99.90;;;;;;5073577;28;20139;-79
2022/12/20 11:02:31;;;;;;;1.88;0.20;;;10.10;99.90;;;;;;5056377;28;20040;-80
2022/12/20 11:05:23;;;;;;;1.00;0.13;;;10.20;99.90;;;;;;5073138;28;20079;-80
2022/12/20 11:08:15;;;;;;;0.00;0.00;;;10.20;99.90;;;;;;5072879;28;20129;-80
2022/12/20 11:10:44;;;;;;;0.00;0.00;;;10.20;99.90;;;;;;5056167;28;20090;-80
2022/12/20 11:13:25;;;;;;;0.98;0.05;;;10.20;99.90;;;;;;5056208;28;20504;-80
2022/12/20 11:15:56;;;;;;;0.00;0.00;;;10.20;99.90;;;;;;5071697;28;20082;-80
2022/12/20 11:18:34;;;;;;;0.10;0.10;;;10.20;99.90;;;;;;5073154;28;20045;-80
2022/12/20 11:21:15;;;;;;;0.00;0.00;;;10.20;99.90;;;;;;5056180;28;20056;-79
2022/12/20 11:23:43;;;;;;;0.10;0.10;;;10.20;99.90;;;;;;5072985;28;20123;-79
2022/12/20 11:26:46;;;;;;;0.05;0.00;;;10.20;99.90;;;;;;5056026;28;20138;-79
2022/12/20 11:29:38;;;;;;;0.00;0.00;;;10.20;99.90;;;;;;5056259;28;20054;-79
2022/12/20 11:32:12;;;;;;;0.00;0.00;;;10.20;99.90;;;;;;5056022;28;20408;-80
2022/12/20 11:34:41;;;;;;;0.30;0.30;;;10.20;99.90;;;;;;5055552;28;20110;-80
2022/12/20 11:37:22;;;;;;;0.00;0.00;;;10.20;99.90;;;;;;5072497;28;20067;-80
2022/12/20 11:40:29;;;;;;;0.00;0.00;;;10.20;99.90;;;;;;5072524;28;20088;-80
2022/12/20 11:42:58;;;;;;;2.28;0.38;;;10.20;99.90;;;;;;5070695;28;20123;-80
2022/12/20 11:45:47;;;;;;;0.05;0.05;;;10.20;99.90;;;;;;5073158;28;20055;-80
2022/12/20 11:48:33;;;;;;;0.00;0.00;;;10.20;99.90;;;;;;5042077;28;20056;-81
2022/12/20 11:51:06;;;;;;;0.05;0.00;;;10.20;99.90;;;;;;5085995;28;20058;-80
2022/12/20 11:53:32;;;;;;;0.00;0.00;;;10.20;99.90;;;;;;5093137;28;20052;-81
2022/12/20 11:56:04;;;;;;;0.00;0.00;;;10.10;99.90;;;;;;5087190;28;20476;-80
2022/12/20 11:59:03;;;;;;;0.00;0.00;;;10.10;99.90;;;;;;5096314;28;20036;-80
2022/12/20 12:02:01;;;;;;;0.00;0.00;;;10.20;99.90;;;;;;5093866;28;20480;-81
2022/12/20 12:04:35;;;;;;;0.88;0.10;;;10.10;99.90;;;;;;5072915;28;20045;-81
2022/12/20 12:07:13;;;;;;;0.00;0.00;;;10.10;99.90;;;;;;5085414;28;20074;-82
2022/12/20 12:09:49;;;;;;;0.00;0.00;;;10.10;99.90;;;;;;5071272;28;20044;-83
2022/12/20 12:12:25;;;;;;;0.13;0.08;;;10.10;99.90;;;;;;5064630;28;20051;-82
2022/12/20 12:15:30;;;;;;;0.10;0.00;;;10.10;99.90;;;;;;5092148;28;20123;-81
2022/12/20 12:18:04;;;;;;;0.00;0.00;;;10.10;99.90;;;;;;5075577;28;20044;-81
2022/12/20 12:20:55;;;;;;;0.08;0.00;;;10.10;99.90;;;;;;5092715;28;20036;-81
2022/12/20 12:23:50;;;;;;;0.00;0.00;;;10.10;99.90;;;;;;5092636;28;20055;-81
2022/12/20 12:26:30;;;;;;;0.20;0.20;;;10.10;99.90;;;;;;5076574;28;20048;-82
2022/12/20 12:29:07;;;;;;;0.32;0.32;;;10.10;99.90;;;;;;5095735;28;20043;-82
2022/12/20 12:31:57;;;;;;;0.08;0.08;;;10.10;99.90;;;;;;5079385;28;20047;-82
2022/12/20 12:34:53;;;;;;;0.73;0.25;;;10.10;99.90;;;;;;5080079;28;20043;-82
2022/12/20 12:37:40;;;;;;;0.20;0.20;;;10.10;99.90;;;;;;5096652;28;20453;-83
2022/12/20 12:40:33;;;;;;;0.00;0.00;;;10.10;99.90;;;;;;5079114;28;20048;-83
2022/12/20 12:43:08;;;;;;;0.10;0.10;;;10.20;99.90;;;;;;5079127;28;20044;-83
2022/12/20 12:45:59;;;;;;;0.10;0.08;;;10.10;99.90;;;;;;5079573;28;20047;-83
2022/12/20 12:48:40;;;;;;;0.00;0.00;;;10.20;99.90;;;;;;5079351;28;20097;-83
2022/12/20 12:51:09;;;;;;;0.30;0.00;;;10.10;99.90;;;;;;5091426;28;20083;-83
2022/12/20 12:53:36;;;;;;;0.00;0.00;;;10.20;99.90;;;;;;5072308;28;20496;-83
2022/12/20 12:56:27;;;;;;;0.00;0.00;;;10.20;99.90;;;;;;5072473;28;20556;-83
2022/12/20 12:59:05;;;;;;;0.00;0.00;;;10.20;99.90;;;;;;5091062;28;20040;-84
2022/12/20 13:01:59;;;;;;;1.13;0.55;;;10.20;99.90;;;;;;5079044;28;20043;-83
2022/12/20 13:04:27;;;;;;;0.00;0.00;;;10.20;99.90;;;;;;5095722;28;20059;-84
2022/12/20 13:07:23;;;;;;;15.18;2.00;;;10.20;99.90;;;;;;5095422;28;20118;-84
2022/12/20 13:09:49;;;;;;;0.55;0.25;;;10.20;99.90;;;;;;5095327;28;20067;-84
2022/12/20 13:12:39;;;;;;;0.00;0.00;;;10.20;99.90;;;;;;5062427;28;20087;-84
2022/12/20 13:15:20;;;;;;;0.00;0.00;;;10.20;99.90;;;;;;5080904;28;20577;-84
2022/12/20 13:17:58;;;;;;;0.00;0.00;;;10.20;99.90;;;;;;5078707;28;20291;-84
2022/12/20 13:20:27;;;;;;;0.00;0.00;;;10.20;99.90;;;;;;5078631;28;20117;-84
2022/12/20 13:23:22;;;;;;;0.00;0.00;;;10.20;99.90;;;;;;5062439;28;20055;-83
2022/12/20 13:25:53;;;;;;;0.00;0.00;;;10.20;99.90;;;;;;5053900;28;20132;-84